createdAt,value
2022-12-01T00:00:35.704Z,69.50
2022-12-01T00:03:07.292Z,65.43
2022-12-01T00:05:38.973Z,71.22
2022-12-01T00:08:10.969Z,72.95
2022-12-01T00:10:42.319Z,77.70
2022-12-01T00:13:13.957Z,73.00
2022-12-01T00:15:45.855Z,70.18
2022-12-01T00:18:17.299Z,85.27
2022-12-01T00:20:52.474Z,86.53
2022-12-01T00:23:24.700Z,79.13
2022-12-01T00:25:55.957Z,75.22
2022-12-01T00:28:27.293Z,79.23
2022-12-01T00:30:58.607Z,72.07
2022-12-01T00:33:30.092Z,73.63
2022-12-01T00:36:05.958Z,72.47
2022-12-01T00:38:38.366Z,63.58
2022-12-01T00:41:10.019Z,67.50
2022-12-01T00:43:41.356Z,44.25
2022-12-01T00:46:12.802Z,42.25
2022-12-01T00:48:44.213Z,39.78
2022-12-01T00:51:15.537Z,40.47
2022-12-01T00:53:47.520Z,37.72
2022-12-01T00:58:49.619Z,40.58
2022-12-01T01:01:21.062Z,38.28
2022-12-01T01:03:53.051Z,43.15
2022-12-01T01:06:24.456Z,37.97
2022-12-01T01:08:55.992Z,40.45
2022-12-01T01:11:27.659Z,36.17
2022-12-01T01:14:01.085Z,38.13
2022-12-01T01:16:33.060Z,39.50
2022-12-01T01:19:04.795Z,43.38
2022-12-01T01:21:36.111Z,37.90
2022-12-01T01:24:07.881Z,39.00
2022-12-01T01:26:39.665Z,48.45
2022-12-01T01:29:11.073Z,43.95
2022-12-01T01:31:43.750Z,40.35
2022-12-01T01:34:15.176Z,41.90
2022-12-01T01:36:47.351Z,44.13
2022-12-01T01:39:19.318Z,46.85
2022-12-01T01:41:51.022Z,48.70
2022-12-01T01:44:57.075Z,47.40
2022-12-01T01:47:46.698Z,43.67
2022-12-01T01:50:23.361Z,50.45
2022-12-01T01:53:02.002Z,49.35
2022-12-01T01:55:35.785Z,42.25
2022-12-01T01:58:11.359Z,46.33
2022-12-01T02:00:45.679Z,48.30
2022-12-01T02:03:19.032Z,41.63
2022-12-01T02:05:50.504Z,45.20
2022-12-01T02:08:21.775Z,39.90
2022-12-01T02:10:53.125Z,34.83
2022-12-01T02:13:46.037Z,40.33
2022-12-01T02:16:41.889Z,44.45
2022-12-01T02:20:05.125Z,41.33
2022-12-01T02:23:08.101Z,39.92
2022-12-01T02:25:51.750Z,43.88
2022-12-01T02:28:41.571Z,42.60
2022-12-01T02:31:32.859Z,43.08
2022-12-01T02:34:27.588Z,38.00
2022-12-01T02:37:20.700Z,39.05
2022-12-01T02:40:05.454Z,41.05
2022-12-01T02:42:58.012Z,42.25
2022-12-01T02:46:00.244Z,40.15
2022-12-01T02:48:44.721Z,41.47
2022-12-01T02:51:37.971Z,48.83
2022-12-01T02:54:10.371Z,37.15
2022-12-01T02:56:41.673Z,43.42
2022-12-01T02:59:17.507Z,38.05
2022-12-01T03:02:31.217Z,36.22
2022-12-01T03:05:02.549Z,37.00
2022-12-01T03:08:04.834Z,38.90
2022-12-01T03:10:56.009Z,33.08
2022-12-01T03:13:36.366Z,42.80
2022-12-01T03:16:18.537Z,40.40
2022-12-01T03:18:49.933Z,35.20
2022-12-01T03:21:28.710Z,35.92
2022-12-01T03:24:13.278Z,35.92
2022-12-01T03:26:50.081Z,37.75
2022-12-01T03:29:35.286Z,35.75
2022-12-01T03:32:22.851Z,35.47
2022-12-01T03:35:02.816Z,38.72
2022-12-01T03:37:57.661Z,36.35
2022-12-01T03:40:32.894Z,37.33
2022-12-01T03:43:11.551Z,37.70
2022-12-01T03:45:48.583Z,36.47
2022-12-01T03:48:20.777Z,35.92
2022-12-01T03:51:06.849Z,37.40
2022-12-01T03:53:49.999Z,38.80
2022-12-01T03:56:27.147Z,37.03
2022-12-01T03:59:02.141Z,36.53
2022-12-01T04:01:36.070Z,37.17
2022-12-01T04:04:13.362Z,31.33
2022-12-01T04:06:49.502Z,30.83
2022-12-01T04:09:20.943Z,36.13
2022-12-01T04:12:10.367Z,34.13
2022-12-01T04:14:42.080Z,32.00
2022-12-01T04:17:13.336Z,35.03
2022-12-01T04:19:44.664Z,35.90
2022-12-01T04:22:16.059Z,35.55
2022-12-01T04:24:47.740Z,33.38
2022-12-01T04:27:19.457Z,32.65
2022-12-01T04:29:51.129Z,29.45
2022-12-01T04:34:53.967Z,32.38
2022-12-01T04:39:55.968Z,33.80
2022-12-01T04:44:58.809Z,29.98
2022-12-01T04:47:30.428Z,31.30
2022-12-01T04:50:02.917Z,33.53
2022-12-01T04:52:35.503Z,27.80
2022-12-01T04:55:07.130Z,34.15
2022-12-01T04:57:39.158Z,32.63
2022-12-01T05:00:14.737Z,32.35
2022-12-01T05:02:47.460Z,31.10
2022-12-01T05:05:18.819Z,27.98
2022-12-01T05:07:50.168Z,30.17
2022-12-01T05:10:21.833Z,29.23
2022-12-01T05:12:53.375Z,30.60
2022-12-01T05:15:24.689Z,31.95
2022-12-01T05:17:55.972Z,34.38
2022-12-01T05:20:46.619Z,28.67
2022-12-01T05:23:18.048Z,30.52
2022-12-01T05:25:49.311Z,27.35
2022-12-01T05:28:21.361Z,30.48
2022-12-01T05:30:53.524Z,28.67
2022-12-01T05:35:57.585Z,24.63
2022-12-01T05:38:29.277Z,27.95
2022-12-01T05:41:00.768Z,27.05
2022-12-01T05:43:32.055Z,28.95
2022-12-01T05:46:03.560Z,24.55
2022-12-01T05:48:35.026Z,27.00
2022-12-01T05:51:14.597Z,27.02
2022-12-01T05:53:46.424Z,30.30
2022-12-01T05:56:18.512Z,28.08
2022-12-01T05:58:50.343Z,25.67
2022-12-01T06:01:21.791Z,34.17
2022-12-01T06:03:54.649Z,26.95
2022-12-01T06:06:26.470Z,27.25
2022-12-01T06:08:57.925Z,24.90
2022-12-01T06:11:29.241Z,25.60
2022-12-01T06:14:00.614Z,32.35
2022-12-01T06:16:31.916Z,25.17
2022-12-01T06:19:03.318Z,23.45
2022-12-01T06:21:34.752Z,24.85
2022-12-01T06:24:06.489Z,24.35
2022-12-01T06:26:38.214Z,23.95
2022-12-01T06:29:09.648Z,22.85
2022-12-01T06:31:41.032Z,24.63
2022-12-01T06:34:13.554Z,23.73
2022-12-01T06:36:45.469Z,24.33
2022-12-01T06:39:18.683Z,26.13
2022-12-01T06:41:50.074Z,23.23
2022-12-01T06:44:21.645Z,25.33
2022-12-01T06:49:25.826Z,21.35
2022-12-01T06:51:57.161Z,21.25
2022-12-01T06:54:28.460Z,21.67
2022-12-01T06:57:00.154Z,21.75
2022-12-01T07:02:04.705Z,23.60
2022-12-01T07:04:36.144Z,24.75
2022-12-01T07:07:08.816Z,20.63
2022-12-01T07:09:40.231Z,22.85
2022-12-01T07:12:11.607Z,21.45
2022-12-01T07:14:43.957Z,24.55
2022-12-01T07:17:15.160Z,20.63
2022-12-01T07:19:46.628Z,22.05
2022-12-01T07:22:18.295Z,20.38
2022-12-01T07:24:49.782Z,20.45
2022-12-01T07:27:21.164Z,20.02
2022-12-01T07:29:52.489Z,19.70
2022-12-01T07:32:24.070Z,20.63
2022-12-01T07:34:55.980Z,21.02
2022-12-01T07:37:27.477Z,22.08
2022-12-01T07:39:59.248Z,21.08
2022-12-01T07:42:30.557Z,21.10
2022-12-01T07:45:01.940Z,21.15
2022-12-01T07:47:33.203Z,22.52
2022-12-01T07:50:06.016Z,20.50
2022-12-01T07:52:37.610Z,20.35
2022-12-01T07:55:09.686Z,19.33
2022-12-01T07:57:41.013Z,20.23
2022-12-01T08:00:12.893Z,20.23
2022-12-01T08:02:44.304Z,20.33
2022-12-01T08:05:15.668Z,22.35
2022-12-01T08:07:47.038Z,19.20
2022-12-01T08:10:18.758Z,18.55
2022-12-01T08:12:50.192Z,19.35
2022-12-01T08:15:22.083Z,19.08
2022-12-01T08:17:53.751Z,22.58
2022-12-01T08:20:25.104Z,19.00
2022-12-01T08:22:56.378Z,23.35
2022-12-01T08:25:27.651Z,17.42
2022-12-01T08:27:59.363Z,18.55
2022-12-01T08:30:32.539Z,25.33
2022-12-01T08:33:03.863Z,18.15
2022-12-01T08:35:38.464Z,19.38
2022-12-01T08:38:15.664Z,19.38
2022-12-01T08:40:47.191Z,19.40
2022-12-01T08:46:09.751Z,24.92
2022-12-01T08:48:42.252Z,20.25
2022-12-01T08:51:18.507Z,18.73
2022-12-01T08:53:51.666Z,24.45
2022-12-01T08:56:35.652Z,24.80
2022-12-01T08:59:07.657Z,19.40
2022-12-01T09:02:00.450Z,16.35
2022-12-01T09:04:35.270Z,18.45
2022-12-01T09:07:06.871Z,16.92
2022-12-01T09:09:38.505Z,17.13
2022-12-01T09:12:10.657Z,19.10
2022-12-01T09:14:47.097Z,18.48
2022-12-01T09:17:19.747Z,15.05
2022-12-01T09:19:51.629Z,26.65
2022-12-01T09:22:23.384Z,27.70
2022-12-01T09:24:54.599Z,22.80
2022-12-01T09:27:25.855Z,18.50
2022-12-01T09:29:57.610Z,21.15
2022-12-01T09:35:00.006Z,17.67
2022-12-01T09:37:31.363Z,12.02
2022-12-01T09:40:03.151Z,12.52
2022-12-01T09:42:35.697Z,18.10
2022-12-01T09:45:08.117Z,17.38
2022-12-01T09:47:41.514Z,15.82
2022-12-01T09:50:20.981Z,20.45
2022-12-01T09:53:17.134Z,12.25
2022-12-01T09:55:48.739Z,12.00
2022-12-01T09:58:24.932Z,16.45
2022-12-01T10:00:57.218Z,17.65
2022-12-01T10:03:47.902Z,14.52
2022-12-01T10:06:28.553Z,11.68
2022-12-01T10:09:08.192Z,16.42
2022-12-01T10:11:44.254Z,15.80
2022-12-01T10:14:22.554Z,16.42
2022-12-01T10:17:16.666Z,15.07
2022-12-01T10:19:53.478Z,18.20
2022-12-01T10:22:43.526Z,15.68
2022-12-01T10:25:28.448Z,28.05
2022-12-01T10:28:07.375Z,16.30
2022-12-01T10:30:51.277Z,16.20
2022-12-01T10:33:34.798Z,22.83
2022-12-01T10:36:06.339Z,24.30
2022-12-01T10:41:16.505Z,18.55
2022-12-01T10:43:52.266Z,17.02
2022-12-01T10:46:34.331Z,19.92
2022-12-01T10:49:19.714Z,14.10
2022-12-01T10:51:54.714Z,18.75
2022-12-01T10:54:35.908Z,12.75
2022-12-01T10:57:16.158Z,12.00
2022-12-01T11:00:10.498Z,20.30
2022-12-01T11:02:45.950Z,11.80
2022-12-01T11:05:27.913Z,13.43
2022-12-01T11:07:59.648Z,13.88
2022-12-01T11:10:39.371Z,8.60
2022-12-01T11:13:25.600Z,10.63
2022-12-01T11:15:59.509Z,11.57
2022-12-01T11:18:34.949Z,12.10
2022-12-01T11:21:16.613Z,10.70
2022-12-01T11:23:50.338Z,16.83
2022-12-01T11:26:30.471Z,11.45
2022-12-01T11:29:03.368Z,13.57
2022-12-01T11:31:49.670Z,15.00
2022-12-01T11:34:41.215Z,11.80
2022-12-01T11:37:20.250Z,12.18
2022-12-01T11:39:53.799Z,13.20
2022-12-01T11:42:31.079Z,15.68
2022-12-01T11:45:25.153Z,9.98
2022-12-01T11:48:22.639Z,23.65
2022-12-01T11:51:29.383Z,10.38
2022-12-01T11:54:24.387Z,12.65
2022-12-01T11:57:31.651Z,18.60
2022-12-01T11:59:50.227Z,9.57
2022-12-01T12:02:56.999Z,8.93
2022-12-01T12:05:44.030Z,10.98
2022-12-01T12:08:30.991Z,7.95
2022-12-01T12:11:02.392Z,9.82
2022-12-01T12:13:41.974Z,12.40
2022-12-01T12:16:22.294Z,14.10
2022-12-01T12:19:17.000Z,11.10
2022-12-01T12:22:09.695Z,9.02
2022-12-01T12:24:57.131Z,8.85
2022-12-01T12:27:43.189Z,70.97
2022-12-01T12:30:25.804Z,60.78
2022-12-01T12:33:12.278Z,78.90
2022-12-01T12:36:21.371Z,57.53
2022-12-01T12:38:58.095Z,42.67
2022-12-01T12:41:36.467Z,35.85
2022-12-01T12:44:37.801Z,32.40
2022-12-01T12:47:21.701Z,28.92
2022-12-01T12:50:05.929Z,29.65
2022-12-01T12:52:42.763Z,19.27
2022-12-01T12:55:17.244Z,26.95
2022-12-01T12:57:54.949Z,26.13
2022-12-01T13:00:37.767Z,26.80
2022-12-01T13:03:46.548Z,16.40
2022-12-01T13:06:34.577Z,14.77
2022-12-01T13:09:38.254Z,18.33
2022-12-01T13:12:28.311Z,18.92
2022-12-01T13:15:16.945Z,17.63
2022-12-01T13:18:28.428Z,16.08
2022-12-01T13:21:00.995Z,12.82
2022-12-01T13:23:34.754Z,13.30
2022-12-01T13:26:10.648Z,16.27
2022-12-01T13:28:56.633Z,14.23
2022-12-01T13:31:28.181Z,11.85
2022-12-01T13:36:46.686Z,12.30
2022-12-01T13:39:30.890Z,9.65
2022-12-01T13:42:07.601Z,10.50
2022-12-01T13:44:53.842Z,14.90
2022-12-01T13:47:40.207Z,7.95
2022-12-01T13:50:49.139Z,8.57
2022-12-01T13:53:28.075Z,14.38
2022-12-01T13:56:17.346Z,15.90
2022-12-01T13:58:56.619Z,11.18
2022-12-01T14:01:28.090Z,8.25
2022-12-01T14:04:18.172Z,7.22
2022-12-01T14:06:52.088Z,8.48
2022-12-01T14:09:40.000Z,7.57
2022-12-01T14:12:22.036Z,6.80
2022-12-01T14:15:01.800Z,7.65
2022-12-01T14:17:39.782Z,8.85
2022-12-01T14:20:18.085Z,6.72
2022-12-01T14:23:11.059Z,7.40
2022-12-01T14:25:44.425Z,6.40
2022-12-01T14:28:19.742Z,5.90
2022-12-01T14:30:53.259Z,8.32
2022-12-01T14:33:46.414Z,18.08
2022-12-01T14:36:26.744Z,10.70
2022-12-01T14:39:01.153Z,13.18
2022-12-01T14:42:10.904Z,7.78
2022-12-01T14:44:56.703Z,7.10
2022-12-01T14:47:44.269Z,10.85
2022-12-01T14:50:26.448Z,11.30
2022-12-01T14:55:44.050Z,7.00
2022-12-01T14:58:28.536Z,13.30
2022-12-01T15:01:14.747Z,5.22
2022-12-01T15:03:50.593Z,11.27
2022-12-01T15:06:24.746Z,6.40
2022-12-01T15:09:35.522Z,6.95
2022-12-01T15:12:08.781Z,12.60
2022-12-01T15:14:48.686Z,11.43
2022-12-01T15:17:38.520Z,5.50
2022-12-01T15:20:33.674Z,4.25
2022-12-01T15:23:14.445Z,4.90
2022-12-01T15:25:48.001Z,7.43
2022-12-01T15:28:22.598Z,6.03
2022-12-01T15:30:56.942Z,4.80
2022-12-01T15:33:37.173Z,5.22
2022-12-01T15:36:09.904Z,6.05
2022-12-01T15:38:44.376Z,6.63
2022-12-01T15:41:31.291Z,10.15
2022-12-01T15:44:05.121Z,12.77
2022-12-01T15:46:37.034Z,10.80
2022-12-01T15:49:22.990Z,7.80
2022-12-01T15:51:55.555Z,9.07
2022-12-01T15:54:29.377Z,6.00
2022-12-01T15:57:03.020Z,7.07
2022-12-01T15:59:44.141Z,8.70
2022-12-01T16:02:38.639Z,12.10
2022-12-01T16:05:16.047Z,7.07
2022-12-01T16:10:40.534Z,9.80
2022-12-01T16:13:49.252Z,5.90
2022-12-01T16:16:38.894Z,4.18
2022-12-01T16:19:10.193Z,6.00
2022-12-01T16:22:27.230Z,3.87
2022-12-01T16:24:58.555Z,4.32
2022-12-01T16:27:31.181Z,4.27
2022-12-01T16:30:24.394Z,6.63
2022-12-01T16:33:04.684Z,2.50
2022-12-01T16:35:36.516Z,4.68
2022-12-01T16:38:24.457Z,4.47
2022-12-01T16:40:58.275Z,2.83
2022-12-01T16:43:31.338Z,2.53
2022-12-01T16:46:06.149Z,2.80
2022-12-01T16:48:39.150Z,2.92
2022-12-01T16:51:14.645Z,2.55
2022-12-01T16:53:50.802Z,3.60
2022-12-01T16:56:22.643Z,2.88
2022-12-01T16:58:53.918Z,1.83
2022-12-01T17:01:25.302Z,1.95
2022-12-01T17:03:56.704Z,2.50
2022-12-01T17:06:27.950Z,9.20
2022-12-01T17:08:59.194Z,4.70
2022-12-01T17:11:30.984Z,6.05
2022-12-01T17:14:02.641Z,2.78
2022-12-01T17:16:33.894Z,3.47
2022-12-01T17:19:05.793Z,9.50
2022-12-01T17:24:09.561Z,6.95
2022-12-01T17:26:40.978Z,7.65
2022-12-01T17:29:12.344Z,12.73
2022-12-01T17:31:43.876Z,4.75
2022-12-01T17:34:15.442Z,4.18
2022-12-01T17:36:46.884Z,5.20
2022-12-01T17:39:18.127Z,4.88
2022-12-01T17:41:49.426Z,13.07
2022-12-01T17:44:20.620Z,5.07
2022-12-01T17:46:52.595Z,13.00
2022-12-01T17:49:24.033Z,5.75
2022-12-01T17:51:55.270Z,8.23
2022-12-01T17:54:26.556Z,5.37
2022-12-01T17:56:58.009Z,6.18
2022-12-01T17:59:29.336Z,2.80
2022-12-01T18:02:00.716Z,2.23
2022-12-01T18:04:33.595Z,2.63
2022-12-01T18:07:05.295Z,2.20
2022-12-01T18:09:36.808Z,3.13
2022-12-01T18:12:08.191Z,11.07
2022-12-01T18:14:39.999Z,2.90
2022-12-01T18:17:11.334Z,1.45
2022-12-01T18:19:42.614Z,3.75
2022-12-01T18:22:13.993Z,4.13
2022-12-01T18:24:45.242Z,2.05
2022-12-01T18:27:16.738Z,6.00
2022-12-01T18:29:48.019Z,5.25
2022-12-01T18:32:19.342Z,2.13
2022-12-01T18:34:53.513Z,2.35
2022-12-01T18:37:24.882Z,2.95
2022-12-01T18:39:59.834Z,6.78
2022-12-01T18:42:31.182Z,2.03
2022-12-01T18:45:02.918Z,5.32
2022-12-01T18:47:34.260Z,5.03
2022-12-01T18:50:06.224Z,3.77
2022-12-01T18:52:39.020Z,7.45
2022-12-01T18:55:10.834Z,2.88
2022-12-01T18:57:42.702Z,3.30
2022-12-01T19:00:14.831Z,5.80
2022-12-01T19:02:47.049Z,2.05
2022-12-01T19:05:18.347Z,2.42
2022-12-01T19:07:50.508Z,2.13
2022-12-01T19:10:22.039Z,4.03
2022-12-01T19:12:53.246Z,12.88
2022-12-01T19:15:24.694Z,2.57
2022-12-01T19:17:57.137Z,2.03
2022-12-01T19:20:28.372Z,5.43
2022-12-01T19:22:59.661Z,7.10
2022-12-01T19:25:31.212Z,2.33
2022-12-01T19:28:02.999Z,2.00
2022-12-01T19:30:34.694Z,2.33
2022-12-01T19:33:06.517Z,4.03
2022-12-01T19:35:38.215Z,2.60
2022-12-01T19:40:41.312Z,2.72
2022-12-01T19:43:12.691Z,2.47
2022-12-01T19:45:43.959Z,2.47
2022-12-01T19:48:15.188Z,2.17
2022-12-01T19:50:46.491Z,3.37
2022-12-01T19:53:17.916Z,4.70
2022-12-01T19:58:20.812Z,3.67
2022-12-01T20:00:52.597Z,3.38
2022-12-01T20:03:23.909Z,5.00
2022-12-01T20:05:55.205Z,4.33
2022-12-01T20:08:27.219Z,2.35
2022-12-01T20:11:01.470Z,4.35
2022-12-01T20:13:37.272Z,7.38
2022-12-01T20:16:14.402Z,4.45
2022-12-01T20:18:46.311Z,3.22
2022-12-01T20:21:26.516Z,3.70
2022-12-01T20:24:03.355Z,2.78
2022-12-01T20:26:43.780Z,3.13
2022-12-01T20:29:23.911Z,5.20
2022-12-01T20:31:57.840Z,3.35
2022-12-01T20:34:37.811Z,2.72
2022-12-01T20:37:09.746Z,4.30
2022-12-01T20:39:43.129Z,3.50
2022-12-01T20:42:15.063Z,5.32
2022-12-01T20:44:46.439Z,4.63
2022-12-01T20:47:20.045Z,5.35
2022-12-01T20:49:54.241Z,3.58
2022-12-01T20:52:29.851Z,3.08
2022-12-01T20:55:01.147Z,4.40
2022-12-01T20:57:32.446Z,3.87
2022-12-01T21:00:03.681Z,3.20
2022-12-01T21:02:35.055Z,8.10
2022-12-01T21:05:06.853Z,2.90
2022-12-01T21:07:38.185Z,3.33
2022-12-01T21:10:09.809Z,3.93
2022-12-01T21:13:00.445Z,4.57
2022-12-01T21:15:34.171Z,3.25
2022-12-01T21:18:19.065Z,8.60
2022-12-01T21:20:55.007Z,3.67
2022-12-01T21:23:28.968Z,5.28
2022-12-01T21:26:00.410Z,4.75
2022-12-01T21:28:32.609Z,2.90
2022-12-01T21:31:15.768Z,2.83
2022-12-01T21:33:47.621Z,6.53
2022-12-01T21:36:24.192Z,3.67
2022-12-01T21:39:01.971Z,6.93
2022-12-01T21:41:33.566Z,4.47
2022-12-01T21:44:15.012Z,5.80
2022-12-01T21:46:47.202Z,3.80
2022-12-01T21:49:35.789Z,2.80
2022-12-01T21:52:23.995Z,4.40
2022-12-01T21:54:55.938Z,4.70
2022-12-01T21:57:51.068Z,3.58
2022-12-01T22:00:35.946Z,2.65
2022-12-01T22:03:10.938Z,3.78
2022-12-01T22:06:07.121Z,10.23
2022-12-01T22:08:42.754Z,2.72
2022-12-01T22:11:24.920Z,7.25
2022-12-01T22:14:17.076Z,3.20
2022-12-01T22:17:16.621Z,3.53
2022-12-01T22:19:55.763Z,3.63
2022-12-01T22:22:32.425Z,3.70
2022-12-01T22:25:27.818Z,2.88
2022-12-01T22:28:01.585Z,3.10
2022-12-01T22:30:33.087Z,2.97
2022-12-01T22:33:07.581Z,2.90
2022-12-01T22:35:46.629Z,2.53
2022-12-01T22:38:31.197Z,3.13
2022-12-01T22:41:08.684Z,3.20
2022-12-01T22:43:47.881Z,2.85
2022-12-01T22:46:36.250Z,3.03
2022-12-01T22:49:24.335Z,4.57
2022-12-01T22:52:17.799Z,2.70
2022-12-01T22:54:51.365Z,2.70
2022-12-01T22:57:38.640Z,6.10
2022-12-01T23:00:18.522Z,4.88
2022-12-01T23:02:57.523Z,2.53
2022-12-01T23:05:31.870Z,2.45
2022-12-01T23:08:04.212Z,3.70
2022-12-01T23:10:37.053Z,6.60
2022-12-01T23:13:26.646Z,3.90
2022-12-01T23:15:58.437Z,3.33
2022-12-01T23:18:33.537Z,3.08
2022-12-01T23:21:05.419Z,4.57
2022-12-01T23:23:39.495Z,3.10
2022-12-01T23:26:11.212Z,4.45
2022-12-01T23:28:42.823Z,4.13
2022-12-01T23:31:14.218Z,2.83
2022-12-01T23:33:45.645Z,4.80
2022-12-01T23:36:30.052Z,7.33
2022-12-01T23:39:06.872Z,11.20
2022-12-01T23:41:52.708Z,6.22
2022-12-01T23:44:39.201Z,6.63
2022-12-01T23:47:31.262Z,8.88
2022-12-01T23:50:14.542Z,16.92
2022-12-01T23:52:45.920Z,20.83
2022-12-01T23:55:30.845Z,24.95
2022-12-01T23:58:03.324Z,23.77
